PWSweather.com
Personal Weather Stations
Station Observations
CALONGE
CalongeES 17251

CalongeES 17251

Lat: 41.85972222, Lon: 3.077777778

Elevation: 16

Station Type: Oregon WMR928N

Latest ConditionsUpdated 8:00:02 AM GMT+01:01 Saturday, Jan 18, 2020
Currently Today's Max Today's Min Today's Average
Temperature 47.7°F8.7°C 47.7°F8.7°C 40.5°F4.7°C 42.9°F6.1°C
Dew Point 31.8°F-0.1°C 37.6°F3.1°C 31.8°F-0.1°C 34.0°F1.1°C
Winds Calm Calm 6.4 mph -10.3 kmh - - 3.1 mph 5.0 kmh
Wind Gusts 5.3 mph8.5 kmh 11.4 mph18.3 kmh - -
Humidity 54% 80% 54% 71%
Pressure 30.39 in1029.1 mb 30.42 in1030.1 mb 30.39 in1029.1 mb -
Hour Temp Dew Point Humidity Winds Wind Gusts Pressure Precip Precip Rate Daily Precip Total
08:00 AM 47.7°F8.7°C 31.8°F-0.1°C 54% Calm Calm 5.3 mph8.5 kmh 30.39 in1029.1 mb 0.00 in0.0 mm 0.00 in0.0 mm 0.00 in0.0 mm
07:45 AM 47.7°F8.7°C 32.3°F0.2°C 55% Calm Calm 8.2 mph13.2 kmh 30.39 in1029.1 mb 0.00 in0.0 mm 0.00 in0.0 mm 0.00 in0.0 mm
07:30 AM 47.3°F8.5°C 33.3°F0.7°C 58% 4.1 mph N6.6 kmh N 8.2 mph13.2 kmh 30.39 in1029.1 mb 0.00 in0.0 mm 0.00 in0.0 mm 0.00 in0.0 mm
07:15 AM 46.9°F8.3°C 33.3°F0.7°C 59% 4.1 mph NNW6.6 kmh NNW 10.5 mph16.9 kmh 30.39 in1029.1 mb 0.00 in0.0 mm 0.00 in0.0 mm 0.00 in0.0 mm
07:00 AM 43.3°F6.3°C 37.6°F3.1°C 80% 4.1 mph WNW6.6 kmh WNW 7.6 mph12.2 kmh 30.39 in1029.1 mb 0.00 in0.0 mm 0.00 in0.0 mm 0.00 in0.0 mm
06:45 AM 42.8°F6.0°C 36.7°F2.6°C 79% Calm Calm 7.0 mph11.3 kmh 30.39 in1029.1 mb 0.00 in0.0 mm 0.00 in0.0 mm 0.00 in0.0 mm
06:30 AM 42.4°F5.8°C 36.4°F2.4°C 79% 4.1 mph WNW6.6 kmh WNW 5.3 mph8.5 kmh 30.39 in1029.1 mb 0.00 in0.0 mm 0.00 in0.0 mm 0.00 in0.0 mm
06:15 AM 42.3°F5.7°C 36.2°F2.3°C 79% 5.9 mph W9.5 kmh W 7.6 mph12.2 kmh 30.39 in1029.1 mb 0.00 in0.0 mm 0.00 in0.0 mm 0.00 in0.0 mm
06:00 AM 42.4°F5.8°C 35.7°F2.1°C 77% 5.9 mph W9.5 kmh W 8.2 mph13.2 kmh 30.39 in1029.1 mb 0.00 in0.0 mm 0.00 in0.0 mm 0.00 in0.0 mm
05:45 AM 42.6°F5.9°C 35.6°F2.0°C 76% 5.3 mph WNW8.5 kmh WNW 6.4 mph10.3 kmh 30.39 in1029.1 mb 0.00 in0.0 mm 0.00 in0.0 mm 0.00 in0.0 mm
05:30 AM 42.1°F5.6°C 35.1°F1.7°C 76% 4.7 mph W7.6 kmh W 7.0 mph11.3 kmh 30.39 in1029.1 mb 0.00 in0.0 mm 0.00 in0.0 mm 0.00 in0.0 mm
05:15 AM 41.9°F5.5°C 35.2°F1.8°C 77% 4.1 mph W6.6 kmh W 5.3 mph8.5 kmh 30.39 in1029.1 mb 0.00 in0.0 mm 0.00 in0.0 mm 0.00 in0.0 mm
05:00 AM 41.9°F5.5°C 34.9°F1.6°C 76% 4.7 mph W7.6 kmh W 8.2 mph13.2 kmh 30.39 in1029.1 mb 0.00 in0.0 mm 0.00 in0.0 mm 0.00 in0.0 mm
04:45 AM 41.7°F5.4°C 34.7°F1.5°C 76% 5.3 mph W8.5 kmh W 7.6 mph12.2 kmh 30.39 in1029.1 mb 0.00 in0.0 mm 0.00 in0.0 mm 0.00 in0.0 mm
04:30 AM 41.9°F5.5°C 34.2°F1.2°C 74% 5.9 mph W9.5 kmh W 8.2 mph13.2 kmh 30.39 in1029.1 mb 0.00 in0.0 mm 0.00 in0.0 mm 0.00 in0.0 mm
04:15 AM 41.4°F5.2°C 34.0°F1.1°C 75% 2.9 mph WNW4.7 kmh WNW 8.2 mph13.2 kmh 30.39 in1029.1 mb 0.00 in0.0 mm 0.00 in0.0 mm 0.00 in0.0 mm
04:00 AM 41.2°F5.1°C 33.5°F0.8°C 74% Calm Calm -- 30.39 in1029.1 mb 0.00 in0.0 mm 0.00 in0.0 mm 0.00 in0.0 mm
03:45 AM 41.5°F5.3°C 33.9°F1.1°C 74% 5.3 mph W8.5 kmh W 8.2 mph13.2 kmh 30.39 in1029.1 mb 0.00 in0.0 mm 0.00 in0.0 mm 0.00 in0.0 mm
03:30 AM 41.0°F5.0°C 33.7°F0.9°C 75% 6.4 mph WNW10.3 kmh WNW 11.4 mph18.3 kmh 30.42 in1030.1 mb 0.00 in0.0 mm 0.00 in0.0 mm 0.00 in0.0 mm
03:15 AM 40.5°F4.7°C 33.5°F0.8°C 76% 5.9 mph W9.5 kmh W 7.6 mph12.2 kmh 30.42 in1030.1 mb 0.00 in0.0 mm 0.00 in0.0 mm 0.00 in0.0 mm
03:00 AM 41.0°F5.0°C 33.3°F0.7°C 74% Calm Calm 5.3 mph8.5 kmh 30.42 in1030.1 mb 0.00 in0.0 mm 0.00 in0.0 mm 0.00 in0.0 mm
02:45 AM 41.5°F5.3°C 33.5°F0.8°C 73% Calm Calm 5.3 mph8.5 kmh 30.42 in1030.1 mb 0.00 in0.0 mm 0.00 in0.0 mm 0.00 in0.0 mm
02:30 AM 41.9°F5.5°C 34.2°F1.2°C 74% Calm Calm -- 30.39 in1029.1 mb 0.00 in0.0 mm 0.00 in0.0 mm 0.00 in0.0 mm
02:15 AM 42.3°F5.7°C 33.9°F1.1°C 72% 4.1 mph W6.6 kmh W 7.0 mph11.3 kmh 30.39 in1029.1 mb 0.00 in0.0 mm 0.00 in0.0 mm 0.00 in0.0 mm
02:00 AM 42.8°F6.0°C 33.7°F0.9°C 70% Calm Calm -- 30.39 in1029.1 mb 0.00 in0.0 mm 0.00 in0.0 mm 0.00 in0.0 mm
01:45 AM 42.4°F5.8°C 33.3°F0.7°C 70% Calm Calm -- 30.39 in1029.1 mb 0.00 in0.0 mm 0.00 in0.0 mm 0.00 in0.0 mm
01:30 AM 43.3°F6.3°C 33.1°F0.6°C 67% Calm Calm 4.7 mph7.6 kmh 30.42 in1030.1 mb 0.00 in0.0 mm 0.00 in0.0 mm 0.00 in0.0 mm
01:15 AM 43.7°F6.5°C 32.3°F0.2°C 64% Calm Calm 7.0 mph11.3 kmh 30.42 in1030.1 mb 0.00 in0.0 mm 0.00 in0.0 mm 0.00 in0.0 mm
01:00 AM 43.5°F6.4°C 32.1°F0.1°C 64% 3.5 mph NW5.6 kmh NW 4.7 mph7.6 kmh 30.42 in1030.1 mb 0.00 in0.0 mm 0.00 in0.0 mm 0.00 in0.0 mm
12:45 AM 43.5°F6.4°C 32.5°F0.3°C 65% Calm Calm -- 30.42 in1030.1 mb 0.00 in0.0 mm 0.00 in0.0 mm 0.00 in0.0 mm
12:30 AM 43.0°F6.1°C 32.8°F0.4°C 67% 4.7 mph W7.6 kmh W 8.2 mph13.2 kmh 30.39 in1029.1 mb 0.00 in0.0 mm 0.00 in0.0 mm 0.00 in0.0 mm
12:15 AM 43.0°F6.1°C 32.4°F0.2°C 66% 5.3 mph W8.5 kmh W 8.2 mph13.2 kmh 30.39 in1029.1 mb 0.00 in0.0 mm 0.00 in0.0 mm 0.00 in0.0 mm
12:00 AM 42.4°F5.8°C 32.3°F0.2°C 67% 4.7 mph W7.6 kmh W 7.0 mph11.3 kmh 30.39 in1029.1 mb 0.00 in0.0 mm 0.00 in0.0 mm 0.00 in0.0 mm